Aeroporto :
LOGIN :

Iscrizione | Disclaimer

   EN    FR    IT 

 










Sommario :    VFR   VFR Marginale   IFR   IFR Intensivo   IFR Molto Intensivo
Visibilità : 
Base nubi : 
>= 8 km
>= 3000ft
5 / 8 km
1000 / 3000 ft
1500m / 5 km
500 / 1000 ft
800 / 1500m
200 / 500 ft
< 800m
< 200 ft
Simboli :   Temporali  Nebbia  Neve Forte  Precipitazioni Forti  Vento > 20 kt
SIGMETs :   Varie  Temporali  Ghiacco  Turbolenza  Onda orograficha  Ceneri Vulcaniche






- Altitudine del aeroporto : 126 ft
- Codice IATA : WIC


EGPC - Wick

ULTIMO METAR :
  • 121020Z 02019KT 9000 -RA SCT005 BKN009 06/05 Q0996

METARs OBSOLETI :
  • 120950Z 01018KT 9000 -RA SCT005 BKN009 06/05 Q0996
  • 120920Z 01017KT 9999 -SHRA BKN009 06/05 Q0995
  • 120850Z 02020KT 9999 -SHRA BKN008 07/05 Q0995
  • 120820Z 03019KT 9999 -SHRA BKN010 06/05 Q0995
  • 120750Z 03022KT 9999 -SHRA SCT015 BKN020 07/05 Q0994

TAF AMD TAF EGPC
Valido dal 12 a 09 ore il 12 a 18 ore UTC


120907Z 1209/1218 03020KT 9999 SCT018
TEMPO 1209/1213 6000 RA BKN009
BECMG 1213/1215 36015KT
PROB30
TEMPO 1213/1218 7000 SHRA
ATIS : +44 1955 607 596



MetMap, La meteo Aeronautica in un colpo d'occhio ! - Copyright ORBIFLY Dicembre 2007 - Disclaimer

ORBIFLY MET'MAP TEAM :

Programmazione e sviluppo : Alexandra Zaïnal
Concezione e sviluppo : Baudouin d'Aumeries
Co-Programmazione e sviluppo : Marc-Olivier Méhu
Supporto tecnico e logistico : Manuel Goepfert
Aiuto per la traduzione : Arnaldo La Scala

Contatto : metmap@orbifly.com




FONTI E CREDITI :

   NOAA